createdAt,value
2023-03-15T00:01:21.622Z,66.87
2023-03-15T00:03:52.200Z,64.00
2023-03-15T00:06:22.277Z,70.70
2023-03-15T00:08:52.237Z,61.78
2023-03-15T00:11:22.602Z,59.50
2023-03-15T00:13:53.763Z,67.05
2023-03-15T00:16:23.990Z,60.88
2023-03-15T00:18:54.030Z,66.40
2023-03-15T00:21:24.656Z,64.90
2023-03-15T00:23:54.973Z,61.53
2023-03-15T00:26:25.431Z,69.32
2023-03-15T00:28:55.627Z,62.77
2023-03-15T00:31:28.243Z,64.90
2023-03-15T00:33:58.435Z,70.40
2023-03-15T00:36:28.597Z,71.47
2023-03-15T00:38:59.676Z,71.63
2023-03-15T00:41:29.679Z,78.10
2023-03-15T00:43:59.568Z,73.72
2023-03-15T00:46:29.603Z,72.95
2023-03-15T00:49:00.249Z,72.82
2023-03-15T00:51:30.365Z,72.35
2023-03-15T00:54:00.209Z,73.05
2023-03-15T00:56:34.671Z,72.55
2023-03-15T00:59:05.114Z,77.05
2023-03-15T01:01:35.449Z,71.13
2023-03-15T01:04:07.206Z,72.72
2023-03-15T01:06:37.178Z,70.72
2023-03-15T01:09:08.046Z,78.13
2023-03-15T01:11:38.291Z,86.50
2023-03-15T01:14:16.248Z,75.20
2023-03-15T01:16:46.442Z,77.28
2023-03-15T01:19:16.607Z,72.00
2023-03-15T01:21:49.922Z,74.90
2023-03-15T01:24:20.610Z,71.63
2023-03-15T01:26:52.886Z,64.63
2023-03-15T01:29:22.983Z,69.25
2023-03-15T01:31:53.091Z,74.57
2023-03-15T01:34:23.796Z,60.83
2023-03-15T01:36:57.273Z,64.37
2023-03-15T01:39:34.344Z,66.60
2023-03-15T01:42:22.556Z,64.03
2023-03-15T01:44:54.826Z,64.77
2023-03-15T01:47:30.201Z,64.00
2023-03-15T01:50:07.828Z,60.65
2023-03-15T01:52:55.977Z,64.40
2023-03-15T01:58:16.642Z,69.30
2023-03-15T02:00:48.342Z,65.13
2023-03-15T02:03:31.209Z,66.10
2023-03-15T02:06:07.971Z,66.57
2023-03-15T02:08:49.161Z,62.65
2023-03-15T02:11:23.916Z,62.80
2023-03-15T02:14:02.634Z,62.20
2023-03-15T02:19:37.704Z,59.42
2023-03-15T02:22:49.103Z,62.08
2023-03-15T02:25:52.138Z,60.43
2023-03-15T02:28:41.520Z,68.30
2023-03-15T02:31:12.931Z,61.72
2023-03-15T02:33:49.290Z,61.03
2023-03-15T02:36:29.847Z,57.70
2023-03-15T02:39:00.260Z,57.90
2023-03-15T02:41:59.606Z,53.42
2023-03-15T02:44:39.128Z,54.95
2023-03-15T02:47:27.295Z,55.28
2023-03-15T02:53:00.918Z,51.83
2023-03-15T02:55:49.089Z,49.92
2023-03-15T02:58:37.507Z,55.92
2023-03-15T03:01:07.877Z,55.63
2023-03-15T03:03:38.007Z,49.03
2023-03-15T03:06:26.456Z,50.97
2023-03-15T03:09:14.888Z,50.00
2023-03-15T03:14:16.328Z,49.95
2023-03-15T03:16:46.675Z,51.67
2023-03-15T03:19:35.658Z,52.10
2023-03-15T03:22:08.050Z,53.42
2023-03-15T03:24:38.189Z,49.53
2023-03-15T03:27:08.660Z,55.08
2023-03-15T03:29:40.947Z,51.33
2023-03-15T03:32:13.579Z,49.42
2023-03-15T03:34:43.673Z,47.97
2023-03-15T03:37:13.783Z,47.22
2023-03-15T03:39:54.766Z,50.42
2023-03-15T03:42:24.932Z,50.13
2023-03-15T03:45:13.818Z,50.15
2023-03-15T03:47:47.838Z,55.38
2023-03-15T03:50:18.561Z,51.43
2023-03-15T03:52:49.713Z,49.95
2023-03-15T03:58:14.773Z,48.28
2023-03-15T04:00:58.651Z,49.88
2023-03-15T04:03:33.318Z,47.78
2023-03-15T04:06:11.874Z,49.13
2023-03-15T04:08:45.565Z,49.25
2023-03-15T04:11:34.000Z,47.40
2023-03-15T04:14:07.750Z,52.28
2023-03-15T04:16:57.252Z,46.90
2023-03-15T04:19:27.845Z,47.75
2023-03-15T04:21:58.307Z,50.03
2023-03-15T04:25:01.588Z,46.40
2023-03-15T04:28:00.843Z,51.45
2023-03-15T04:30:53.998Z,46.67
2023-03-15T04:33:52.526Z,45.92
2023-03-15T04:36:34.916Z,48.22
2023-03-15T04:39:12.511Z,48.60
2023-03-15T04:42:01.003Z,47.33
2023-03-15T04:44:53.907Z,47.50
2023-03-15T04:47:41.175Z,45.60
2023-03-15T04:50:30.695Z,45.40
2023-03-15T04:53:18.795Z,50.38
2023-03-15T04:56:09.317Z,48.33
2023-03-15T04:58:53.732Z,48.78
2023-03-15T05:01:45.003Z,46.53
2023-03-15T05:07:23.415Z,46.83
2023-03-15T05:09:56.463Z,48.92
2023-03-15T05:12:26.683Z,47.75
2023-03-15T05:15:15.722Z,47.25
2023-03-15T05:17:48.528Z,47.78
2023-03-15T05:23:46.692Z,48.78
2023-03-15T05:26:37.107Z,49.08
2023-03-15T05:29:27.505Z,48.30
2023-03-15T05:32:31.063Z,52.00
2023-03-15T05:35:26.445Z,50.03
2023-03-15T05:38:35.175Z,50.67
2023-03-15T05:41:10.538Z,48.00
2023-03-15T05:44:06.818Z,48.85
2023-03-15T05:46:37.006Z,47.33
2023-03-15T05:52:28.501Z,49.33
2023-03-15T05:55:17.041Z,55.67
2023-03-15T05:58:05.447Z,48.78
2023-03-15T06:00:38.659Z,48.63
2023-03-15T06:03:18.743Z,47.78
2023-03-15T06:05:56.340Z,50.92
2023-03-15T06:11:23.996Z,49.55
2023-03-15T06:14:12.544Z,52.55
2023-03-15T06:16:53.311Z,47.20
2023-03-15T06:19:24.584Z,50.37
2023-03-15T06:22:14.602Z,49.80
2023-03-15T06:24:51.940Z,50.30
2023-03-15T06:27:25.801Z,54.80
2023-03-15T06:29:59.991Z,50.30
2023-03-15T06:32:48.112Z,50.80
2023-03-15T06:35:18.268Z,51.40
2023-03-15T06:37:48.035Z,50.25
2023-03-15T06:40:18.931Z,50.73
2023-03-15T06:42:50.067Z,51.72
2023-03-15T06:45:22.263Z,54.20
2023-03-15T06:48:10.766Z,52.25
2023-03-15T06:50:47.220Z,51.72
2023-03-15T06:53:19.035Z,50.75
2023-03-15T06:56:10.525Z,50.88
2023-03-15T06:58:40.741Z,50.78
2023-03-15T07:01:11.003Z,49.40
2023-03-15T07:03:41.228Z,52.17
2023-03-15T07:06:11.576Z,53.35
2023-03-15T07:08:43.056Z,53.67
2023-03-15T07:13:44.314Z,56.78
2023-03-15T07:16:14.466Z,59.17
2023-03-15T07:18:44.391Z,57.97
2023-03-15T07:21:14.261Z,57.17
2023-03-15T07:24:02.818Z,59.83
2023-03-15T07:26:33.155Z,56.27
2023-03-15T07:29:21.398Z,53.60
2023-03-15T07:31:51.843Z,55.10
2023-03-15T07:37:07.380Z,54.63
2023-03-15T07:39:55.567Z,54.85
2023-03-15T07:45:12.510Z,53.67
2023-03-15T07:47:43.139Z,52.45
2023-03-15T07:50:16.921Z,54.87
2023-03-15T07:53:06.689Z,53.58
2023-03-15T07:55:37.808Z,54.47
2023-03-15T07:58:26.303Z,54.80
2023-03-15T08:01:00.258Z,53.93
2023-03-15T08:03:30.497Z,51.35
2023-03-15T08:06:01.064Z,53.03
2023-03-15T08:08:31.280Z,52.47
2023-03-15T08:11:19.899Z,53.20
2023-03-15T08:13:50.148Z,53.47
2023-03-15T08:16:20.766Z,50.97
2023-03-15T08:18:51.582Z,52.63
2023-03-15T08:21:21.874Z,50.85
2023-03-15T08:23:51.989Z,52.22
2023-03-15T08:26:21.917Z,54.00
2023-03-15T08:29:10.189Z,53.25
2023-03-15T08:31:40.414Z,51.10
2023-03-15T08:34:10.967Z,50.72
2023-03-15T08:36:41.153Z,49.90
2023-03-15T08:39:11.338Z,51.53
2023-03-15T08:44:27.039Z,51.50
2023-03-15T08:46:57.034Z,51.80
2023-03-15T08:49:27.624Z,51.80
2023-03-15T08:51:57.750Z,52.67
2023-03-15T08:54:30.438Z,52.13
2023-03-15T08:57:18.581Z,51.13
2023-03-15T08:59:48.696Z,52.30
2023-03-15T09:02:18.792Z,51.63
2023-03-15T09:04:49.185Z,50.58
2023-03-15T09:07:19.296Z,50.67
2023-03-15T09:09:50.402Z,50.20
2023-03-15T09:12:20.510Z,52.65
2023-03-15T09:14:50.646Z,49.22
2023-03-15T09:20:11.127Z,49.78
2023-03-15T09:23:01.314Z,49.97
2023-03-15T09:25:31.571Z,49.60
2023-03-15T09:28:20.012Z,52.15
2023-03-15T09:30:50.097Z,50.63
2023-03-15T09:33:20.076Z,51.22
2023-03-15T09:35:50.209Z,51.05
2023-03-15T09:38:22.477Z,48.55
2023-03-15T09:40:53.107Z,48.40
2023-03-15T09:43:34.193Z,49.40
2023-03-15T09:46:28.339Z,49.95
2023-03-15T09:49:16.163Z,52.65
2023-03-15T09:51:57.746Z,47.83
2023-03-15T09:54:34.539Z,49.42
2023-03-15T09:57:11.068Z,50.30
2023-03-15T09:59:47.165Z,49.88
2023-03-15T10:02:27.382Z,48.83
2023-03-15T10:05:18.468Z,49.53
2023-03-15T10:07:49.112Z,50.08
2023-03-15T10:10:22.280Z,52.33
2023-03-15T10:13:13.582Z,48.63
2023-03-15T10:16:05.565Z,50.95
2023-03-15T10:18:44.498Z,50.38
2023-03-15T10:21:36.295Z,47.80
2023-03-15T10:24:11.764Z,49.05
2023-03-15T10:26:42.216Z,47.42
2023-03-15T10:29:18.448Z,48.80
2023-03-15T10:31:49.414Z,47.90
2023-03-15T10:34:20.117Z,51.75
2023-03-15T10:36:57.693Z,48.50
2023-03-15T10:39:28.141Z,48.88
2023-03-15T10:41:58.382Z,50.13
2023-03-15T10:44:29.530Z,48.65
2023-03-15T10:47:16.149Z,46.65
2023-03-15T10:49:52.891Z,53.30
2023-03-15T10:52:37.473Z,49.75
2023-03-15T10:55:18.210Z,50.25
2023-03-15T10:57:58.054Z,47.28
2023-03-15T11:00:38.832Z,49.58
2023-03-15T11:03:23.955Z,50.53
2023-03-15T11:05:59.689Z,48.00
2023-03-15T11:08:44.381Z,48.30
2023-03-15T11:11:14.446Z,50.22
2023-03-15T11:13:45.187Z,50.72
2023-03-15T11:16:17.806Z,48.28
2023-03-15T11:19:17.559Z,48.60
2023-03-15T11:21:49.950Z,50.63
2023-03-15T11:24:31.547Z,52.42
2023-03-15T11:27:06.537Z,49.75
2023-03-15T11:29:39.207Z,47.05
2023-03-15T11:32:37.355Z,47.47
2023-03-15T11:35:11.520Z,50.85
2023-03-15T11:38:12.976Z,48.92
2023-03-15T11:40:53.317Z,49.08
2023-03-15T11:43:42.374Z,48.13
2023-03-15T11:46:45.047Z,48.50
2023-03-15T11:49:20.662Z,46.40
2023-03-15T11:51:51.964Z,47.92
2023-03-15T11:57:08.482Z,48.88
2023-03-15T11:59:42.707Z,48.05
2023-03-15T12:02:12.693Z,49.67
2023-03-15T12:04:47.849Z,47.90
2023-03-15T12:07:17.822Z,43.40
2023-03-15T12:10:17.605Z,46.03
2023-03-15T12:12:49.716Z,41.08
2023-03-15T12:15:22.607Z,42.95
2023-03-15T12:18:02.245Z,41.25
2023-03-15T12:20:44.994Z,41.28
2023-03-15T12:23:17.913Z,42.05
2023-03-15T12:25:56.425Z,40.70
2023-03-15T12:29:16.165Z,37.35
2023-03-15T12:31:55.049Z,39.38
2023-03-15T12:34:34.042Z,40.15
2023-03-15T12:37:10.045Z,38.05
2023-03-15T12:39:50.681Z,37.75
2023-03-15T12:42:35.850Z,37.72
2023-03-15T12:45:20.928Z,38.83
2023-03-15T12:48:15.073Z,39.70
2023-03-15T12:50:48.008Z,40.70
2023-03-15T12:53:40.586Z,43.80
2023-03-15T12:56:35.806Z,38.80
2023-03-15T12:59:19.669Z,42.13
2023-03-15T13:01:50.719Z,37.63
2023-03-15T13:04:20.847Z,37.78
2023-03-15T13:06:59.487Z,38.35
2023-03-15T13:10:21.615Z,38.65
2023-03-15T13:13:14.611Z,37.65
2023-03-15T13:15:59.555Z,35.35
2023-03-15T13:18:36.562Z,36.75
2023-03-15T13:21:55.405Z,39.83
2023-03-15T13:24:42.405Z,37.08
2023-03-15T13:27:20.514Z,40.13
2023-03-15T13:29:50.736Z,45.17
2023-03-15T13:32:24.611Z,39.47
2023-03-15T13:34:54.794Z,38.92
2023-03-15T13:37:28.860Z,40.55
2023-03-15T13:40:11.048Z,39.78
2023-03-15T13:42:44.039Z,39.53
2023-03-15T13:45:15.242Z,39.20
2023-03-15T13:47:47.639Z,38.92
2023-03-15T13:50:20.161Z,39.80
2023-03-15T13:52:51.341Z,44.35
2023-03-15T13:55:27.511Z,36.03
2023-03-15T13:58:02.334Z,42.28
2023-03-15T14:00:36.046Z,39.03
2023-03-15T14:03:10.985Z,36.72
2023-03-15T14:05:51.141Z,39.03
2023-03-15T14:08:34.148Z,34.35
2023-03-15T14:11:20.530Z,37.40
2023-03-15T14:13:59.864Z,37.63
2023-03-15T14:17:03.554Z,38.60
2023-03-15T14:19:36.663Z,44.38
2023-03-15T14:22:17.848Z,38.88
2023-03-15T14:24:52.140Z,39.88
2023-03-15T14:27:27.843Z,36.47
2023-03-15T14:30:04.373Z,41.17
2023-03-15T14:32:40.251Z,37.90
2023-03-15T14:35:25.286Z,40.95
2023-03-15T14:38:25.541Z,39.08
2023-03-15T14:40:56.886Z,40.80
2023-03-15T14:43:27.113Z,39.95
2023-03-15T14:45:57.201Z,34.08
2023-03-15T14:48:34.095Z,36.22
2023-03-15T14:51:05.414Z,37.00
2023-03-15T14:56:07.504Z,40.38
2023-03-15T14:58:38.498Z,40.30
2023-03-15T15:01:09.077Z,37.13
2023-03-15T15:04:05.619Z,38.47
2023-03-15T15:06:40.610Z,38.05
2023-03-15T15:09:10.742Z,38.30
2023-03-15T15:11:41.003Z,36.08
2023-03-15T15:14:20.552Z,41.33
2023-03-15T15:16:51.319Z,39.97
2023-03-15T15:19:21.968Z,38.13
2023-03-15T15:24:34.117Z,40.22
2023-03-15T15:27:06.355Z,37.30
2023-03-15T15:29:36.486Z,36.03
2023-03-15T15:32:07.373Z,38.65
2023-03-15T15:34:38.108Z,37.25
2023-03-15T15:37:08.321Z,37.20
2023-03-15T15:39:38.530Z,36.50
2023-03-15T15:42:08.903Z,43.38
2023-03-15T15:44:39.128Z,35.45
2023-03-15T15:47:09.525Z,38.75
2023-03-15T15:49:41.396Z,40.30
2023-03-15T15:52:20.229Z,41.55
2023-03-15T15:54:50.369Z,37.30
2023-03-15T15:57:28.775Z,39.90
2023-03-15T15:59:59.027Z,41.85
2023-03-15T16:02:30.034Z,42.65
2023-03-15T16:07:29.630Z,39.38
2023-03-15T16:10:01.965Z,42.33
2023-03-15T16:12:34.761Z,41.38
2023-03-15T16:15:04.780Z,44.67
2023-03-15T16:17:34.658Z,38.92
2023-03-15T16:20:04.944Z,37.88
2023-03-15T16:22:35.963Z,40.13
2023-03-15T16:25:18.770Z,43.13
2023-03-15T16:27:49.144Z,42.70
2023-03-15T16:30:28.175Z,43.67
2023-03-15T16:32:58.408Z,41.17
2023-03-15T16:35:38.479Z,47.03
2023-03-15T16:38:14.641Z,38.85
2023-03-15T16:40:47.559Z,39.33
2023-03-15T16:43:17.615Z,40.83
2023-03-15T16:45:48.244Z,41.38
2023-03-15T16:48:18.214Z,37.17
2023-03-15T16:50:48.122Z,43.28
2023-03-15T16:53:18.662Z,40.78
2023-03-15T16:55:48.714Z,41.15
2023-03-15T16:58:23.124Z,41.72
2023-03-15T17:00:53.321Z,44.60
2023-03-15T17:03:25.447Z,45.28
2023-03-15T17:05:55.717Z,40.28
2023-03-15T17:08:27.467Z,40.50
2023-03-15T17:10:57.681Z,42.13
2023-03-15T17:13:30.710Z,40.80
2023-03-15T17:16:00.815Z,42.88
2023-03-15T17:18:32.192Z,38.13
2023-03-15T17:21:02.260Z,43.15
2023-03-15T17:23:32.794Z,38.17
2023-03-15T17:26:03.061Z,42.80
2023-03-15T17:28:33.147Z,39.22
2023-03-15T17:31:23.904Z,41.17
2023-03-15T17:33:53.740Z,36.08
2023-03-15T17:36:27.020Z,40.33
2023-03-15T17:38:57.811Z,42.97
2023-03-15T17:41:36.071Z,43.47
2023-03-15T17:44:07.183Z,35.95
2023-03-15T17:46:37.278Z,39.30
2023-03-15T17:49:09.236Z,37.75
2023-03-15T17:51:40.279Z,43.80
2023-03-15T17:54:20.940Z,43.20
2023-03-15T17:56:50.975Z,38.30
2023-03-15T17:59:20.849Z,36.10
2023-03-15T18:01:51.407Z,35.22
2023-03-15T18:04:23.177Z,37.65
2023-03-15T18:06:53.400Z,41.53
2023-03-15T18:09:25.891Z,37.00
2023-03-15T18:11:56.334Z,36.90
2023-03-15T18:14:26.392Z,35.77
2023-03-15T18:16:56.377Z,37.72
2023-03-15T18:19:28.700Z,34.53
2023-03-15T18:21:58.740Z,34.03
2023-03-15T18:24:28.950Z,39.95
2023-03-15T18:26:59.236Z,31.30
2023-03-15T18:29:29.375Z,37.58
2023-03-15T18:31:59.335Z,32.20
2023-03-15T18:34:29.419Z,35.13
2023-03-15T18:36:59.381Z,32.67
2023-03-15T18:39:29.929Z,32.00
2023-03-15T18:42:01.032Z,30.88
2023-03-15T18:44:31.069Z,36.42
2023-03-15T18:47:00.971Z,33.60
2023-03-15T18:49:31.214Z,30.00
2023-03-15T18:52:01.349Z,29.85
2023-03-15T18:54:40.392Z,32.03
2023-03-15T18:57:10.687Z,27.90
2023-03-15T18:59:40.762Z,33.05
2023-03-15T19:02:12.331Z,32.47
2023-03-15T19:04:42.407Z,32.50
2023-03-15T19:07:12.711Z,31.48
2023-03-15T19:09:43.165Z,30.90
2023-03-15T19:12:13.572Z,29.80
2023-03-15T19:14:43.606Z,32.40
2023-03-15T19:17:13.674Z,31.33
2023-03-15T19:19:43.668Z,30.20
2023-03-15T19:22:13.484Z,29.55
2023-03-15T19:24:43.529Z,31.27
2023-03-15T19:27:14.133Z,36.25
2023-03-15T19:29:44.104Z,29.35
2023-03-15T19:32:14.791Z,33.17
2023-03-15T19:34:45.194Z,32.00
2023-03-15T19:37:15.286Z,32.35
2023-03-15T19:39:45.358Z,33.65
2023-03-15T19:42:15.237Z,28.00
2023-03-15T19:44:45.916Z,31.30
2023-03-15T19:47:16.235Z,28.55
2023-03-15T19:49:46.278Z,32.20
2023-03-15T19:52:18.191Z,26.90
2023-03-15T19:54:50.094Z,32.72
2023-03-15T19:57:20.156Z,28.85
2023-03-15T19:59:50.076Z,27.40
2023-03-15T20:02:20.134Z,32.50
2023-03-15T20:04:50.076Z,28.02
2023-03-15T20:07:21.198Z,31.15
2023-03-15T20:09:51.237Z,33.13
2023-03-15T20:12:21.045Z,29.25
2023-03-15T20:14:50.880Z,29.77
2023-03-15T20:17:22.835Z,26.80
2023-03-15T20:19:52.865Z,28.08
2023-03-15T20:22:23.073Z,29.75
2023-03-15T20:24:53.105Z,31.88
2023-03-15T20:27:23.097Z,33.28
2023-03-15T20:29:54.122Z,29.90
2023-03-15T20:32:25.804Z,30.15
2023-03-15T20:34:59.577Z,30.50
2023-03-15T20:37:32.484Z,27.85
2023-03-15T20:40:02.480Z,28.88
2023-03-15T20:42:32.952Z,31.80
2023-03-15T20:45:03.182Z,27.77
2023-03-15T20:47:33.965Z,29.23
2023-03-15T20:50:04.629Z,28.93
2023-03-15T20:52:36.312Z,26.07
2023-03-15T20:55:08.120Z,32.53
2023-03-15T20:57:38.660Z,32.40
2023-03-15T21:00:14.790Z,28.70
2023-03-15T21:02:44.935Z,27.45
2023-03-15T21:05:18.402Z,30.10
2023-03-15T21:07:49.070Z,31.58
2023-03-15T21:10:19.716Z,32.20
2023-03-15T21:12:50.634Z,33.37
2023-03-15T21:15:23.656Z,33.78
2023-03-15T21:17:55.201Z,27.95
2023-03-15T21:20:25.496Z,29.88
2023-03-15T21:22:56.268Z,30.23
2023-03-15T21:25:26.090Z,33.70
2023-03-15T21:27:56.144Z,30.42
2023-03-15T21:30:26.195Z,33.47
2023-03-15T21:32:56.219Z,31.95
2023-03-15T21:35:27.659Z,33.28
2023-03-15T21:37:58.170Z,31.70
2023-03-15T21:40:28.241Z,36.25
2023-03-15T21:42:58.103Z,34.45
2023-03-15T21:45:29.182Z,33.65
2023-03-15T21:50:29.138Z,33.72
2023-03-15T21:52:59.432Z,32.28
2023-03-15T21:55:29.768Z,32.60
2023-03-15T21:57:59.689Z,30.85
2023-03-15T22:00:31.059Z,29.70
2023-03-15T22:03:01.163Z,35.42
2023-03-15T22:05:31.292Z,35.40
2023-03-15T22:08:01.523Z,33.50
2023-03-15T22:10:32.868Z,32.40
2023-03-15T22:13:03.073Z,34.40
2023-03-15T22:15:32.912Z,32.85
2023-03-15T22:18:04.861Z,31.77
2023-03-15T22:20:36.229Z,36.40
2023-03-15T22:25:37.211Z,32.58
2023-03-15T22:28:07.285Z,33.22
2023-03-15T22:30:37.461Z,32.28
2023-03-15T22:33:07.892Z,32.50
2023-03-15T22:35:38.050Z,36.35
2023-03-15T22:38:11.953Z,34.22
2023-03-15T22:40:43.151Z,34.03
2023-03-15T22:45:44.024Z,35.60
2023-03-15T22:48:14.108Z,38.33
2023-03-15T22:50:43.986Z,29.90
2023-03-15T22:53:14.005Z,32.22
2023-03-15T22:55:45.046Z,32.40
2023-03-15T22:59:41.726Z,42.10
2023-03-15T23:02:14.669Z,39.50
2023-03-15T23:04:44.962Z,44.58
2023-03-15T23:07:15.866Z,42.25
2023-03-15T23:12:18.140Z,38.17
2023-03-15T23:14:53.469Z,47.50
2023-03-15T23:17:23.722Z,49.30
2023-03-15T23:19:54.199Z,47.10
2023-03-15T23:22:24.302Z,42.73
2023-03-15T23:24:54.247Z,44.20
2023-03-15T23:27:28.036Z,53.83
2023-03-15T23:29:58.482Z,46.33
2023-03-15T23:32:28.821Z,44.80
2023-03-15T23:34:59.440Z,39.92
2023-03-15T23:37:30.778Z,45.53
2023-03-15T23:42:31.038Z,48.22
2023-03-15T23:45:01.831Z,51.97
2023-03-15T23:47:32.027Z,43.13
2023-03-15T23:50:02.439Z,44.15
2023-03-15T23:52:33.091Z,61.57
2023-03-15T23:55:03.167Z,52.70
2023-03-15T23:57:33.169Z,45.78
